createdAt,value
2022-10-19T00:00:51.379Z,1.67
2022-10-19T00:03:20.764Z,1.20
2022-10-19T00:05:49.603Z,1.48
2022-10-19T00:08:16.013Z,1.33
2022-10-19T00:10:42.484Z,1.63
2022-10-19T00:13:08.910Z,2.10
2022-10-19T00:15:39.322Z,1.58
2022-10-19T00:18:05.952Z,1.40
2022-10-19T00:20:32.361Z,1.90
2022-10-19T00:22:58.769Z,1.27
2022-10-19T00:25:25.166Z,1.75
2022-10-19T00:27:51.565Z,1.90
2022-10-19T00:30:17.966Z,1.30
2022-10-19T00:32:44.406Z,1.67
2022-10-19T00:35:10.832Z,1.30
2022-10-19T00:37:37.272Z,1.50
2022-10-19T00:40:04.288Z,1.65
2022-10-19T00:42:31.013Z,1.55
2022-10-19T00:45:00.036Z,1.83
2022-10-19T00:47:26.913Z,1.60
2022-10-19T00:49:53.871Z,1.48
2022-10-19T00:52:22.195Z,1.73
2022-10-19T00:54:49.587Z,1.40
2022-10-19T00:57:16.225Z,1.65
2022-10-19T00:59:44.606Z,1.95
2022-10-19T01:02:11.121Z,1.45
2022-10-19T01:04:40.468Z,1.30
2022-10-19T01:07:08.150Z,1.60
2022-10-19T01:09:34.772Z,1.85
2022-10-19T01:12:15.897Z,1.80
2022-10-19T01:14:48.245Z,1.52
2022-10-19T01:17:31.572Z,1.70
2022-10-19T01:20:20.881Z,1.55
2022-10-19T01:23:13.656Z,1.50
2022-10-19T01:26:11.140Z,1.45
2022-10-19T01:29:15.197Z,1.20
2022-10-19T01:31:50.710Z,1.63
2022-10-19T01:34:23.293Z,1.80
2022-10-19T01:36:54.976Z,1.40
2022-10-19T01:39:30.794Z,1.40
2022-10-19T01:42:01.568Z,1.55
2022-10-19T01:44:34.545Z,1.88
2022-10-19T01:47:13.474Z,1.35
2022-10-19T01:49:55.686Z,1.48
2022-10-19T01:52:23.565Z,1.13
2022-10-19T01:54:59.785Z,1.30
2022-10-19T01:57:38.954Z,1.35
2022-10-19T02:00:07.568Z,1.60
2022-10-19T02:02:36.853Z,1.40
2022-10-19T02:05:04.786Z,1.33
2022-10-19T02:07:31.928Z,1.20
2022-10-19T02:09:58.368Z,1.10
2022-10-19T02:12:25.782Z,1.70
2022-10-19T02:14:56.768Z,0.82
2022-10-19T02:17:29.618Z,1.40
2022-10-19T02:19:57.284Z,1.00
2022-10-19T02:22:23.782Z,1.40
2022-10-19T02:24:50.493Z,1.08
2022-10-19T02:27:17.475Z,1.10
2022-10-19T02:29:43.878Z,1.13
2022-10-19T02:32:10.611Z,0.90
2022-10-19T02:34:37.655Z,0.85
2022-10-19T02:37:04.932Z,1.02
2022-10-19T02:39:31.817Z,0.90
2022-10-19T02:42:07.118Z,0.82
2022-10-19T02:44:57.359Z,0.88
2022-10-19T02:47:39.272Z,0.63
2022-10-19T02:50:06.834Z,0.90
2022-10-19T02:52:33.316Z,0.95
2022-10-19T02:54:59.745Z,0.90
2022-10-19T02:57:26.155Z,1.05
2022-10-19T02:59:52.801Z,1.10
2022-10-19T03:02:20.487Z,0.80
2022-10-19T03:07:20.330Z,0.90
2022-10-19T03:09:46.905Z,1.02
2022-10-19T03:12:14.091Z,1.00
2022-10-19T03:14:40.550Z,0.98
2022-10-19T03:17:07.005Z,0.90
2022-10-19T03:19:34.853Z,1.20
2022-10-19T03:22:02.287Z,1.02
2022-10-19T03:24:30.166Z,1.13
2022-10-19T03:26:57.590Z,1.10
2022-10-19T03:29:25.076Z,1.17
2022-10-19T03:31:51.570Z,0.95
2022-10-19T03:34:18.019Z,1.52
2022-10-19T03:36:44.466Z,0.93
2022-10-19T03:39:13.501Z,0.85
2022-10-19T03:41:40.199Z,1.02
2022-10-19T03:44:07.619Z,1.15
2022-10-19T03:46:34.520Z,1.15
2022-10-19T03:49:01.264Z,1.20
2022-10-19T03:51:29.040Z,0.82
2022-10-19T03:53:57.675Z,1.15
2022-10-19T03:56:25.972Z,1.00
2022-10-19T03:58:53.857Z,1.20
2022-10-19T04:01:29.309Z,0.80
2022-10-19T04:04:04.834Z,1.13
2022-10-19T04:06:34.954Z,0.90
2022-10-19T04:09:01.957Z,1.20
2022-10-19T04:11:29.962Z,0.73
2022-10-19T04:13:57.735Z,1.10
2022-10-19T04:16:25.395Z,0.80
2022-10-19T04:18:52.152Z,1.00
2022-10-19T04:21:33.156Z,1.02
2022-10-19T04:24:11.871Z,1.00
2022-10-19T04:26:40.691Z,0.70
2022-10-19T04:29:07.521Z,1.00
2022-10-19T04:31:34.247Z,0.88
2022-10-19T04:34:00.641Z,0.98
2022-10-19T04:36:27.072Z,1.00
2022-10-19T04:38:53.545Z,0.82
2022-10-19T04:41:21.065Z,0.80
2022-10-19T04:43:48.603Z,0.73
2022-10-19T04:46:18.097Z,0.90
2022-10-19T04:48:45.634Z,0.60
2022-10-19T04:51:12.608Z,0.88
2022-10-19T04:53:40.732Z,0.55
2022-10-19T04:56:09.175Z,1.08
2022-10-19T04:58:35.640Z,0.77
2022-10-19T05:01:12.646Z,0.65
2022-10-19T05:03:39.273Z,1.02
2022-10-19T05:06:06.614Z,0.50
2022-10-19T05:08:33.681Z,0.70
2022-10-19T05:11:05.983Z,0.82
2022-10-19T05:13:33.165Z,0.90
2022-10-19T05:16:00.844Z,0.60
2022-10-19T05:18:27.288Z,0.90
2022-10-19T05:21:04.473Z,0.60
2022-10-19T05:26:06.458Z,0.65
2022-10-19T05:28:33.025Z,0.88
2022-10-19T05:31:13.974Z,0.90
2022-10-19T05:33:40.955Z,0.50
2022-10-19T05:36:26.171Z,0.73
2022-10-19T05:38:54.236Z,0.57
2022-10-19T05:41:21.824Z,0.77
2022-10-19T05:43:52.725Z,0.73
2022-10-19T05:46:19.158Z,0.73
2022-10-19T05:48:46.278Z,0.70
2022-10-19T05:51:14.661Z,0.70
2022-10-19T05:53:41.822Z,0.60
2022-10-19T05:56:11.362Z,0.80
2022-10-19T05:58:37.775Z,0.80
2022-10-19T06:01:04.274Z,0.90
2022-10-19T06:03:30.948Z,0.52
2022-10-19T06:05:57.932Z,0.90
2022-10-19T06:08:24.926Z,1.00
2022-10-19T06:10:51.680Z,0.90
2022-10-19T06:13:19.057Z,1.00
2022-10-19T06:15:45.474Z,1.00
2022-10-19T06:18:12.894Z,1.30
2022-10-19T06:20:41.622Z,0.90
2022-10-19T06:23:08.662Z,1.17
2022-10-19T06:25:36.040Z,0.80
2022-10-19T06:28:02.938Z,1.40
2022-10-19T06:30:29.451Z,1.73
2022-10-19T06:32:56.024Z,1.83
2022-10-19T06:35:22.845Z,1.27
2022-10-19T06:37:49.425Z,1.20
2022-10-19T06:40:15.936Z,0.95
2022-10-19T06:42:42.365Z,0.95
2022-10-19T06:45:10.047Z,1.15
2022-10-19T06:47:37.184Z,1.10
2022-10-19T06:50:05.635Z,0.95
2022-10-19T06:52:33.215Z,1.13
2022-10-19T06:54:59.853Z,0.73
2022-10-19T06:57:26.627Z,0.90
2022-10-19T06:59:53.775Z,0.75
2022-10-19T07:02:20.500Z,0.90
2022-10-19T07:04:46.972Z,0.80
2022-10-19T07:07:13.393Z,0.70
2022-10-19T07:09:39.841Z,1.35
2022-10-19T07:12:06.358Z,0.85
2022-10-19T07:14:38.524Z,0.50
2022-10-19T07:17:08.433Z,0.93
2022-10-19T07:19:34.951Z,0.52
2022-10-19T07:22:01.423Z,0.60
2022-10-19T07:24:27.850Z,0.60
2022-10-19T07:26:54.256Z,0.65
2022-10-19T07:29:20.844Z,0.73
2022-10-19T07:31:47.266Z,0.80
2022-10-19T07:34:14.378Z,0.63
2022-10-19T07:36:44.903Z,0.73
2022-10-19T07:39:12.543Z,0.82
2022-10-19T07:41:39.133Z,0.80
2022-10-19T07:44:05.846Z,1.05
2022-10-19T07:46:33.781Z,1.25
2022-10-19T07:49:00.900Z,0.95
2022-10-19T07:53:59.237Z,0.60
2022-10-19T07:56:26.796Z,0.82
2022-10-19T07:58:55.190Z,0.90
2022-10-19T08:01:29.682Z,0.93
2022-10-19T08:04:48.648Z,1.00
2022-10-19T08:06:44.060Z,0.55
2022-10-19T08:09:15.646Z,0.63
2022-10-19T08:11:49.366Z,0.90
2022-10-19T08:14:15.815Z,1.17
2022-10-19T08:16:44.265Z,0.80
2022-10-19T08:19:12.852Z,0.70
2022-10-19T08:21:41.439Z,1.25
2022-10-19T08:24:08.268Z,1.02
2022-10-19T08:26:37.655Z,0.73
2022-10-19T08:29:06.132Z,0.90
2022-10-19T08:31:32.696Z,0.70
2022-10-19T08:33:59.521Z,0.57
2022-10-19T08:36:26.106Z,0.63
2022-10-19T08:38:53.077Z,1.05
2022-10-19T08:41:25.627Z,0.60
2022-10-19T08:44:13.894Z,0.88
2022-10-19T08:46:49.294Z,0.77
2022-10-19T08:49:19.370Z,0.45
2022-10-19T08:51:50.274Z,0.60
2022-10-19T08:54:18.167Z,0.70
2022-10-19T08:57:00.295Z,0.57
2022-10-19T08:59:30.032Z,0.52
2022-10-19T09:02:00.048Z,0.60
2022-10-19T09:04:33.739Z,0.60
2022-10-19T09:07:23.835Z,0.60
2022-10-19T09:10:13.231Z,0.50
2022-10-19T09:12:52.867Z,0.40
2022-10-19T09:15:29.092Z,0.77
2022-10-19T09:17:55.530Z,0.60
2022-10-19T09:20:41.924Z,0.38
2022-10-19T09:23:28.766Z,0.52
2022-10-19T09:25:56.156Z,0.70
2022-10-19T09:28:39.691Z,0.45
2022-10-19T09:31:13.321Z,0.73
2022-10-19T09:33:40.843Z,0.50
2022-10-19T09:36:07.920Z,0.55
2022-10-19T09:38:34.469Z,0.88
2022-10-19T09:41:22.500Z,0.63
2022-10-19T09:43:53.786Z,0.85
2022-10-19T09:46:38.981Z,0.60
2022-10-19T09:49:06.112Z,0.68
2022-10-19T09:51:50.402Z,0.77
2022-10-19T09:54:26.512Z,0.75
2022-10-19T09:56:55.007Z,0.60
2022-10-19T09:59:23.274Z,0.70
2022-10-19T10:02:16.281Z,0.50
2022-10-19T10:04:46.017Z,0.88
2022-10-19T10:07:17.505Z,0.80
2022-10-19T10:09:44.811Z,0.45
2022-10-19T10:12:14.581Z,0.40
2022-10-19T10:14:41.285Z,0.60
2022-10-19T10:17:16.168Z,0.30
2022-10-19T10:19:57.780Z,0.60
2022-10-19T10:22:30.036Z,0.55
2022-10-19T10:24:56.906Z,0.52
2022-10-19T10:27:35.725Z,0.43
2022-10-19T10:30:19.547Z,0.30
2022-10-19T10:32:49.600Z,0.52
2022-10-19T10:35:39.398Z,0.60
2022-10-19T10:38:17.286Z,0.65
2022-10-19T10:40:51.993Z,0.50
2022-10-19T10:43:21.276Z,0.50
2022-10-19T10:45:53.103Z,0.40
2022-10-19T10:48:31.553Z,0.40
2022-10-19T10:51:00.042Z,0.40
2022-10-19T10:53:39.063Z,0.30
2022-10-19T10:56:10.295Z,0.22
2022-10-19T10:58:49.775Z,0.40
2022-10-19T11:01:20.150Z,0.40
2022-10-19T11:03:55.902Z,0.30
2022-10-19T11:09:11.290Z,0.50
2022-10-19T11:11:44.882Z,0.10
2022-10-19T11:14:32.786Z,0.60
2022-10-19T11:17:05.168Z,0.40
2022-10-19T11:19:31.566Z,0.32
2022-10-19T11:22:37.688Z,0.60
2022-10-19T11:25:44.049Z,0.30
2022-10-19T11:28:45.722Z,0.45
2022-10-19T11:31:16.514Z,0.35
2022-10-19T11:36:23.130Z,0.45
2022-10-19T11:39:24.369Z,0.35
2022-10-19T11:42:09.013Z,0.40
2022-10-19T11:45:00.237Z,0.68
2022-10-19T11:47:29.306Z,0.30
2022-10-19T11:50:31.083Z,0.30
2022-10-19T11:53:12.427Z,0.40
2022-10-19T11:55:51.444Z,0.30
2022-10-19T11:58:33.719Z,0.30
2022-10-19T12:01:07.072Z,0.35
2022-10-19T12:03:33.432Z,0.45
2022-10-19T12:06:10.964Z,0.47
2022-10-19T12:08:57.110Z,0.50
2022-10-19T12:11:41.995Z,0.40
2022-10-19T12:14:13.922Z,0.40
2022-10-19T12:16:43.494Z,0.40
2022-10-19T12:19:17.634Z,0.43
2022-10-19T12:21:44.537Z,0.47
2022-10-19T12:24:17.710Z,0.35
2022-10-19T12:26:45.447Z,0.20
2022-10-19T12:29:16.205Z,0.30
2022-10-19T12:31:43.011Z,0.20
2022-10-19T12:34:47.250Z,0.50
2022-10-19T12:37:28.344Z,0.40
2022-10-19T12:39:57.641Z,0.73
2022-10-19T12:42:35.178Z,0.38
2022-10-19T12:45:23.722Z,0.45
2022-10-19T12:48:25.474Z,0.30
2022-10-19T12:50:56.660Z,0.20
2022-10-19T12:53:37.972Z,0.50
2022-10-19T12:56:13.583Z,0.47
2022-10-19T12:58:47.954Z,0.45
2022-10-19T13:01:21.452Z,0.40
2022-10-19T13:03:50.325Z,0.20
2022-10-19T13:06:22.875Z,0.50
2022-10-19T13:08:57.829Z,0.80
2022-10-19T13:11:24.490Z,0.75
2022-10-19T13:14:04.185Z,0.50
2022-10-19T13:16:41.853Z,0.30
2022-10-19T13:19:14.186Z,0.35
2022-10-19T13:21:48.432Z,0.30
2022-10-19T13:24:23.897Z,0.40
2022-10-19T13:27:02.474Z,0.20
2022-10-19T13:29:41.146Z,0.40
2022-10-19T13:32:35.753Z,0.22
2022-10-19T13:35:24.648Z,0.40
2022-10-19T13:38:09.310Z,0.30
2022-10-19T13:40:55.733Z,0.40
2022-10-19T13:43:26.303Z,0.40
2022-10-19T13:46:07.762Z,0.40
2022-10-19T13:48:38.640Z,0.38
2022-10-19T13:51:18.029Z,0.30
2022-10-19T13:54:07.094Z,0.38
2022-10-19T13:57:05.980Z,0.40
2022-10-19T13:59:56.119Z,0.40
2022-10-19T14:02:41.275Z,0.40
2022-10-19T14:05:44.159Z,0.50
2022-10-19T14:08:34.948Z,0.57
2022-10-19T14:11:19.922Z,0.73
2022-10-19T14:13:47.310Z,0.47
2022-10-19T14:16:21.318Z,0.50
2022-10-19T14:18:55.727Z,0.50
2022-10-19T14:21:36.928Z,0.55
2022-10-19T14:24:19.474Z,0.50
2022-10-19T14:26:46.217Z,0.60
2022-10-19T14:29:12.900Z,0.30
2022-10-19T14:31:39.409Z,0.63
2022-10-19T14:34:08.688Z,0.60
2022-10-19T14:36:37.740Z,0.40
2022-10-19T14:39:05.239Z,0.40
2022-10-19T14:41:36.508Z,0.50
2022-10-19T14:44:28.067Z,0.68
2022-10-19T14:46:54.534Z,0.57
2022-10-19T14:49:21.011Z,0.55
2022-10-19T14:52:05.843Z,0.50
2022-10-19T14:54:42.064Z,0.30
2022-10-19T14:57:13.214Z,0.60
2022-10-19T14:59:51.011Z,0.60
2022-10-19T15:02:31.355Z,0.52
2022-10-19T15:05:00.069Z,0.57
2022-10-19T15:07:38.327Z,0.32
2022-10-19T15:10:31.254Z,0.75
2022-10-19T15:13:05.365Z,0.43
2022-10-19T15:15:33.997Z,0.55
2022-10-19T15:18:00.442Z,0.55
2022-10-19T15:20:48.995Z,0.57
2022-10-19T15:23:41.118Z,0.75
2022-10-19T15:26:19.998Z,0.98
2022-10-19T15:28:47.840Z,0.60
2022-10-19T15:31:26.741Z,0.80
2022-10-19T15:33:55.684Z,0.70
2022-10-19T15:36:23.218Z,0.63
2022-10-19T15:39:11.164Z,0.70
2022-10-19T15:41:45.077Z,0.60
2022-10-19T15:44:34.347Z,1.00
2022-10-19T15:47:19.144Z,0.45
2022-10-19T15:49:45.761Z,0.43
2022-10-19T15:52:36.340Z,0.38
2022-10-19T15:55:02.890Z,0.50
2022-10-19T15:57:33.451Z,0.60
2022-10-19T16:00:15.257Z,0.75
2022-10-19T16:02:41.749Z,0.93
2022-10-19T16:05:08.785Z,0.77
2022-10-19T16:07:37.850Z,0.80
2022-10-19T16:10:05.223Z,0.55
2022-10-19T16:12:31.655Z,0.40
2022-10-19T16:14:58.111Z,0.50
2022-10-19T16:17:24.514Z,0.40
2022-10-19T16:19:51.223Z,0.60
2022-10-19T16:22:17.687Z,0.43
2022-10-19T16:24:44.147Z,0.88
2022-10-19T16:27:14.995Z,0.75
2022-10-19T16:29:42.838Z,0.50
2022-10-19T16:32:09.532Z,0.60
2022-10-19T16:34:35.983Z,0.80
2022-10-19T16:37:05.735Z,0.88
2022-10-19T16:39:33.632Z,0.63
2022-10-19T16:42:00.298Z,0.70
2022-10-19T16:44:26.767Z,0.80
2022-10-19T16:46:53.212Z,0.80
2022-10-19T16:49:19.633Z,0.88
2022-10-19T16:51:46.056Z,0.80
2022-10-19T16:54:13.072Z,0.85
2022-10-19T16:56:45.175Z,0.93
2022-10-19T16:59:16.986Z,1.02
2022-10-19T17:01:45.090Z,0.80
2022-10-19T17:04:12.659Z,1.02
2022-10-19T17:06:39.468Z,0.95
2022-10-19T17:11:52.436Z,1.05
2022-10-19T17:14:19.120Z,1.90
2022-10-19T17:16:45.568Z,2.00
2022-10-19T17:19:12.054Z,2.90
2022-10-19T17:21:39.234Z,2.13
2022-10-19T17:24:07.441Z,2.15
2022-10-19T17:26:45.127Z,2.50
2022-10-19T17:29:14.066Z,2.20
2022-10-19T17:31:41.454Z,1.98
2022-10-19T17:34:08.430Z,1.80
2022-10-19T17:36:41.930Z,1.90
2022-10-19T17:39:13.106Z,2.22
2022-10-19T17:41:39.569Z,1.63
2022-10-19T17:44:06.269Z,1.80
2022-10-19T17:46:34.670Z,1.63
2022-10-19T17:49:01.096Z,1.20
2022-10-19T17:51:30.022Z,1.35
2022-10-19T17:53:58.486Z,1.00
2022-10-19T17:56:25.464Z,1.30
2022-10-19T17:58:52.000Z,1.55
2022-10-19T18:01:20.142Z,1.50
2022-10-19T18:03:46.928Z,1.27
2022-10-19T18:06:19.146Z,1.40
2022-10-19T18:08:48.646Z,1.50
2022-10-19T18:11:30.650Z,1.67
2022-10-19T18:13:59.385Z,1.90
2022-10-19T18:16:29.720Z,1.60
2022-10-19T18:18:59.675Z,1.80
2022-10-19T18:21:35.830Z,1.65
2022-10-19T18:24:03.565Z,2.50
2022-10-19T18:26:32.884Z,2.67
2022-10-19T18:29:04.638Z,2.40
2022-10-19T18:31:33.369Z,2.47
2022-10-19T18:34:02.766Z,2.28
2022-10-19T18:36:29.761Z,2.30
2022-10-19T18:39:01.487Z,1.92
2022-10-19T18:41:29.709Z,2.13
2022-10-19T18:44:05.052Z,2.50
2022-10-19T18:46:36.137Z,2.85
2022-10-19T18:49:05.349Z,2.53
2022-10-19T18:51:31.972Z,2.70
2022-10-19T18:53:58.846Z,3.08
2022-10-19T18:56:25.384Z,2.28
2022-10-19T18:58:51.788Z,2.17
2022-10-19T19:01:24.018Z,2.38
2022-10-19T19:03:52.589Z,2.60
2022-10-19T19:06:22.129Z,2.50
2022-10-19T19:08:49.607Z,2.30
2022-10-19T19:11:18.536Z,2.35
2022-10-19T19:13:55.751Z,2.05
2022-10-19T19:16:22.448Z,2.00
2022-10-19T19:18:48.887Z,2.40
2022-10-19T19:21:23.680Z,2.70
2022-10-19T19:23:50.684Z,2.35
2022-10-19T19:26:17.560Z,2.33
2022-10-19T19:28:47.621Z,2.35
2022-10-19T19:31:18.261Z,2.67
2022-10-19T19:33:45.477Z,2.65
2022-10-19T19:36:13.217Z,2.60
2022-10-19T19:38:40.132Z,2.63
2022-10-19T19:41:08.058Z,2.50
2022-10-19T19:43:37.009Z,2.92
2022-10-19T19:46:08.145Z,2.50
2022-10-19T19:48:36.591Z,3.30
2022-10-19T19:51:03.148Z,2.90
2022-10-19T19:53:30.724Z,3.20
2022-10-19T19:55:57.199Z,3.80
2022-10-19T19:58:23.642Z,5.05
2022-10-19T20:00:50.077Z,5.05
2022-10-19T20:03:16.535Z,4.85
2022-10-19T20:05:43.000Z,4.18
2022-10-19T20:08:09.885Z,4.97
2022-10-19T20:10:39.962Z,4.18
2022-10-19T20:13:06.675Z,3.90
2022-10-19T20:15:33.149Z,4.10
2022-10-19T20:17:59.613Z,4.38
2022-10-19T20:20:26.002Z,5.25
2022-10-19T20:22:52.422Z,4.38
2022-10-19T20:25:18.838Z,3.88
2022-10-19T20:27:45.250Z,4.60
2022-10-19T20:30:11.830Z,4.10
2022-10-19T20:32:38.378Z,4.30
2022-10-19T20:35:05.313Z,3.90
2022-10-19T20:37:32.287Z,4.05
2022-10-19T20:39:58.676Z,4.20
2022-10-19T20:42:25.335Z,4.30
2022-10-19T20:44:54.684Z,4.05
2022-10-19T20:47:21.161Z,3.90
2022-10-19T20:49:47.847Z,4.47
2022-10-19T20:52:14.269Z,4.32
2022-10-19T20:54:40.670Z,4.40
2022-10-19T20:57:07.065Z,4.57
2022-10-19T20:59:33.533Z,4.50
2022-10-19T21:01:59.958Z,5.00
2022-10-19T21:04:26.762Z,4.07
2022-10-19T21:06:53.200Z,4.65
2022-10-19T21:09:21.615Z,4.25
2022-10-19T21:11:50.110Z,5.15
2022-10-19T21:14:21.248Z,4.78
2022-10-19T21:16:50.317Z,5.35
2022-10-19T21:19:19.183Z,5.00
2022-10-19T21:21:51.778Z,5.03
2022-10-19T21:24:26.995Z,5.32
2022-10-19T21:26:54.013Z,6.05
2022-10-19T21:29:20.555Z,4.70
2022-10-19T21:31:49.220Z,4.85
2022-10-19T21:34:21.931Z,5.13
2022-10-19T21:36:48.677Z,5.45
2022-10-19T21:39:15.211Z,4.60
2022-10-19T21:41:41.665Z,4.47
2022-10-19T21:44:08.423Z,4.78
2022-10-19T21:46:34.878Z,4.18
2022-10-19T21:49:01.302Z,4.70
2022-10-19T21:51:37.475Z,4.68
2022-10-19T21:54:05.734Z,4.65
2022-10-19T21:56:32.871Z,4.30
2022-10-19T21:58:59.341Z,4.25
2022-10-19T22:01:28.037Z,3.92
2022-10-19T22:03:58.535Z,4.20
2022-10-19T22:06:27.306Z,4.45
2022-10-19T22:08:54.086Z,4.82
2022-10-19T22:11:21.101Z,4.65
2022-10-19T22:13:47.659Z,4.60
2022-10-19T22:16:19.641Z,4.75
2022-10-19T22:18:46.935Z,4.88
2022-10-19T22:21:15.961Z,4.95
2022-10-19T22:23:43.098Z,5.10
2022-10-19T22:26:17.932Z,5.35
2022-10-19T22:28:44.949Z,5.55
2022-10-19T22:31:12.051Z,5.78
2022-10-19T22:33:38.703Z,5.32
2022-10-19T22:36:07.858Z,5.63
2022-10-19T22:38:36.304Z,6.70
2022-10-19T22:41:02.744Z,5.45
2022-10-19T22:43:29.192Z,5.78
2022-10-19T22:45:55.605Z,6.10
2022-10-19T22:48:22.072Z,5.82
2022-10-19T22:50:48.620Z,5.60
2022-10-19T22:53:15.129Z,5.32
2022-10-19T22:55:41.614Z,5.18
2022-10-19T22:58:08.406Z,5.00
2022-10-19T23:00:34.969Z,4.95
2022-10-19T23:03:01.570Z,4.72
2022-10-19T23:05:28.123Z,4.90
2022-10-19T23:07:54.587Z,5.00
2022-10-19T23:10:21.105Z,4.50
2022-10-19T23:12:52.036Z,4.88
2022-10-19T23:15:19.176Z,4.53
2022-10-19T23:17:45.648Z,4.50
2022-10-19T23:20:12.979Z,4.57
2022-10-19T23:22:40.159Z,4.05
2022-10-19T23:25:07.117Z,3.67
2022-10-19T23:27:33.806Z,3.22
2022-10-19T23:30:00.647Z,3.25
2022-10-19T23:32:27.088Z,3.40
2022-10-19T23:34:53.660Z,2.95
2022-10-19T23:37:20.172Z,3.00
2022-10-19T23:39:46.693Z,2.78
2022-10-19T23:42:13.199Z,2.80
2022-10-19T23:44:39.701Z,2.53
2022-10-19T23:47:06.149Z,2.47
2022-10-19T23:49:32.628Z,2.63
2022-10-19T23:51:59.090Z,2.67
2022-10-19T23:54:25.572Z,2.80
2022-10-19T23:56:52.052Z,2.90
2022-10-19T23:59:18.489Z,2.92
